Moundville, Missouri
Current Conditions -  °F | °C
As of 5:55 AM on Thursday 27 Nov 2014 (Local Time) from KPTS Reporting Station
Clear Clear  
Wind Chill: 25°   Ceiling: Unl
Heat Index: 25°   Visibility: 7mi
Dew Point: 23°   Wind: 0mph
Humidity: 91%   Direction: NA
Pressure: 30.48"   Gusts: NA
Location:  37.76°N, 94.45°W
Report Text: KPTS 271155Z AUTO 00000KT 7SM CLR M04/M05 A3048 RMK AO2 T10391052
Loading
Personal Weather Stations






























Interactive Weather Map New forecast layout! Learn more

10-Day Weather Forecast

Advertisements
Track Severe Weather on mobile